createdAt,value
2023-11-23T00:00:12.104Z,18.40
2023-11-23T00:02:39.846Z,17.60
2023-11-23T00:05:10.614Z,19.20
2023-11-23T00:07:39.447Z,20.40
2023-11-23T00:10:12.446Z,17.73
2023-11-23T00:12:39.828Z,20.33
2023-11-23T00:15:08.364Z,20.30
2023-11-23T00:17:37.111Z,18.77
2023-11-23T00:20:08.096Z,19.20
2023-11-23T00:22:35.974Z,18.37
2023-11-23T00:25:04.566Z,18.83
2023-11-23T00:27:31.225Z,19.30
2023-11-23T00:29:58.000Z,19.83
2023-11-23T00:32:24.903Z,18.53
2023-11-23T00:34:52.301Z,19.20
2023-11-23T00:37:19.217Z,18.93
2023-11-23T00:39:45.974Z,20.87
2023-11-23T00:42:12.762Z,19.50
2023-11-23T00:44:40.205Z,21.37
2023-11-23T00:47:07.707Z,20.17
2023-11-23T00:49:37.183Z,20.23
2023-11-23T00:52:04.177Z,19.53
2023-11-23T00:54:31.541Z,20.00
2023-11-23T00:56:58.254Z,20.90
2023-11-23T00:59:25.100Z,22.17
2023-11-23T01:01:51.940Z,19.97
2023-11-23T01:04:18.981Z,18.53
2023-11-23T01:06:45.709Z,19.73
2023-11-23T01:09:12.804Z,19.23
2023-11-23T01:11:40.187Z,19.50
2023-11-23T01:14:09.514Z,19.73
2023-11-23T01:16:36.465Z,18.77
2023-11-23T01:19:03.224Z,18.87
2023-11-23T01:21:30.024Z,18.20
2023-11-23T01:23:56.702Z,17.47
2023-11-23T01:26:23.420Z,19.30
2023-11-23T01:28:50.134Z,18.07
2023-11-23T01:31:16.882Z,17.97
2023-11-23T01:33:43.616Z,17.73
2023-11-23T01:36:10.465Z,18.10
2023-11-23T01:38:37.569Z,17.43
2023-11-23T01:41:04.477Z,18.10
2023-11-23T01:43:32.879Z,18.00
2023-11-23T01:45:59.609Z,18.00
2023-11-23T01:48:26.278Z,18.33
2023-11-23T01:50:53.004Z,17.67
2023-11-23T01:53:19.654Z,16.93
2023-11-23T01:55:47.663Z,16.27
2023-11-23T01:58:15.376Z,15.70
2023-11-23T02:00:42.016Z,15.07
2023-11-23T02:03:08.738Z,15.37
2023-11-23T02:05:35.452Z,16.77
2023-11-23T02:08:02.129Z,16.33
2023-11-23T02:10:29.113Z,15.73
2023-11-23T02:12:56.969Z,17.13
2023-11-23T02:15:23.707Z,16.00
2023-11-23T02:18:03.488Z,15.90
2023-11-23T02:20:32.078Z,16.33
2023-11-23T02:23:01.257Z,16.00
2023-11-23T02:25:28.373Z,16.57
2023-11-23T02:27:55.019Z,16.47
2023-11-23T02:30:21.777Z,16.57
2023-11-23T02:32:49.414Z,17.00
2023-11-23T02:35:16.361Z,15.67
2023-11-23T02:37:43.232Z,15.90
2023-11-23T02:40:12.202Z,15.70
2023-11-23T02:42:41.855Z,15.20
2023-11-23T02:45:10.324Z,15.27
2023-11-23T02:47:37.038Z,15.00
2023-11-23T02:50:05.640Z,14.57
2023-11-23T02:52:32.511Z,15.83
2023-11-23T02:54:59.157Z,14.20
2023-11-23T02:57:25.865Z,13.77
2023-11-23T02:59:52.541Z,15.47
2023-11-23T03:02:19.454Z,15.57
2023-11-23T03:04:46.270Z,16.27
2023-11-23T03:07:13.003Z,15.07
2023-11-23T03:09:39.635Z,15.30
2023-11-23T03:12:06.587Z,15.37
2023-11-23T03:14:35.621Z,15.60
2023-11-23T03:17:04.335Z,16.43
2023-11-23T03:19:31.053Z,16.47
2023-11-23T03:21:58.821Z,15.83
2023-11-23T03:24:25.675Z,17.00
2023-11-23T03:26:52.540Z,15.70
2023-11-23T03:29:19.275Z,15.80
2023-11-23T03:31:46.203Z,15.83
2023-11-23T03:34:13.038Z,16.10
2023-11-23T03:36:39.798Z,16.63
2023-11-23T03:39:08.166Z,17.53
2023-11-23T03:41:35.422Z,16.97
2023-11-23T03:44:02.162Z,18.07
2023-11-23T03:46:28.910Z,16.87
2023-11-23T03:48:55.851Z,17.00
2023-11-23T03:51:22.524Z,17.23
2023-11-23T03:53:49.298Z,16.73
2023-11-23T03:56:19.797Z,18.57
2023-11-23T03:58:46.618Z,17.33
2023-11-23T04:01:13.353Z,16.93
2023-11-23T04:03:46.098Z,16.53
2023-11-23T04:06:13.031Z,17.40
2023-11-23T04:08:42.779Z,16.87
2023-11-23T04:11:10.686Z,17.70
2023-11-23T04:13:37.483Z,17.60
2023-11-23T04:16:04.599Z,17.13
2023-11-23T04:18:31.328Z,18.30
2023-11-23T04:20:58.218Z,16.80
2023-11-23T04:23:25.056Z,17.70
2023-11-23T04:25:51.742Z,16.23
2023-11-23T04:28:18.463Z,17.03
2023-11-23T04:30:45.304Z,16.93
2023-11-23T04:33:12.360Z,16.37
2023-11-23T04:35:39.252Z,18.00
2023-11-23T04:38:06.040Z,17.47
2023-11-23T04:40:32.737Z,17.73
2023-11-23T04:42:59.466Z,18.20
2023-11-23T04:45:26.273Z,17.27
2023-11-23T04:47:53.535Z,18.40
2023-11-23T04:50:22.456Z,16.20
2023-11-23T04:52:49.445Z,17.00
2023-11-23T04:55:16.121Z,17.57
2023-11-23T04:57:43.183Z,15.47
2023-11-23T05:00:12.098Z,16.50
2023-11-23T05:02:44.050Z,16.47
2023-11-23T05:05:13.377Z,17.47
2023-11-23T05:07:40.496Z,18.20
2023-11-23T05:10:09.465Z,18.23
2023-11-23T05:12:36.632Z,17.20
2023-11-23T05:15:04.085Z,18.43
2023-11-23T05:17:31.565Z,17.80
2023-11-23T05:19:58.227Z,18.57
2023-11-23T05:22:25.527Z,19.43
2023-11-23T05:24:52.214Z,18.27
2023-11-23T05:27:18.984Z,19.00
2023-11-23T05:29:47.622Z,19.53
2023-11-23T05:32:16.136Z,20.27
2023-11-23T05:34:42.777Z,20.73
2023-11-23T05:37:09.447Z,20.33
2023-11-23T05:39:36.372Z,19.17
2023-11-23T05:42:04.076Z,18.87
2023-11-23T05:44:31.575Z,20.57
2023-11-23T05:46:58.289Z,20.83
2023-11-23T05:49:24.957Z,19.43
2023-11-23T05:51:51.679Z,21.90
2023-11-23T05:54:18.501Z,21.53
2023-11-23T05:56:46.628Z,22.23
2023-11-23T05:59:13.398Z,20.67
2023-11-23T06:01:40.161Z,21.47
2023-11-23T06:04:07.194Z,22.17
2023-11-23T06:06:33.956Z,21.10
2023-11-23T06:09:00.709Z,20.93
2023-11-23T06:11:27.471Z,19.83
2023-11-23T06:13:54.581Z,22.03
2023-11-23T06:16:21.257Z,22.80
2023-11-23T06:18:48.258Z,22.33
2023-11-23T06:21:14.992Z,21.70
2023-11-23T06:23:41.693Z,22.57
2023-11-23T06:26:08.792Z,22.27
2023-11-23T06:28:35.421Z,22.50
2023-11-23T06:31:02.066Z,21.80
2023-11-23T06:33:28.897Z,24.47
2023-11-23T06:35:56.349Z,23.93
2023-11-23T06:38:24.834Z,24.37
2023-11-23T06:40:52.230Z,24.03
2023-11-23T06:43:18.960Z,22.67
2023-11-23T06:45:45.787Z,22.67
2023-11-23T06:48:12.908Z,25.10
2023-11-23T06:50:39.785Z,23.00
2023-11-23T06:53:06.946Z,23.20
2023-11-23T06:55:34.551Z,23.43
2023-11-23T06:58:01.181Z,24.20
2023-11-23T07:00:27.903Z,22.77
2023-11-23T07:02:57.292Z,22.67
2023-11-23T07:05:25.619Z,23.03
2023-11-23T07:07:53.144Z,23.63
2023-11-23T07:10:21.482Z,24.53
2023-11-23T07:12:49.563Z,22.73
2023-11-23T07:15:18.615Z,22.83
2023-11-23T07:17:45.888Z,24.90
2023-11-23T07:20:16.185Z,22.67
2023-11-23T07:22:43.043Z,23.30
2023-11-23T07:25:10.510Z,23.13
2023-11-23T07:27:38.282Z,23.13
2023-11-23T07:30:07.869Z,22.70
2023-11-23T07:32:35.142Z,22.40
2023-11-23T07:35:02.326Z,23.43
2023-11-23T07:37:30.197Z,24.37
2023-11-23T07:39:58.087Z,21.37
2023-11-23T07:42:26.609Z,22.93
2023-11-23T07:44:53.601Z,22.50
2023-11-23T07:47:21.171Z,23.07
2023-11-23T07:49:47.955Z,23.60
2023-11-23T07:52:15.419Z,23.17
2023-11-23T07:54:42.358Z,22.00
2023-11-23T07:57:09.044Z,22.07
2023-11-23T07:59:37.892Z,21.97
2023-11-23T08:02:06.189Z,22.80
2023-11-23T08:04:33.174Z,23.10
2023-11-23T08:07:00.484Z,22.40
2023-11-23T08:09:27.613Z,22.47
2023-11-23T08:11:57.464Z,22.10
2023-11-23T08:14:24.502Z,24.27
2023-11-23T08:16:51.379Z,22.53
2023-11-23T08:19:18.481Z,22.73
2023-11-23T08:21:49.143Z,22.73
2023-11-23T08:24:18.720Z,22.40
2023-11-23T08:26:45.758Z,25.50
2023-11-23T08:29:12.972Z,23.13
2023-11-23T08:31:41.080Z,22.73
2023-11-23T08:34:09.115Z,24.07
2023-11-23T08:36:37.324Z,23.23
2023-11-23T08:39:04.785Z,23.33
2023-11-23T08:41:32.061Z,24.60
2023-11-23T08:43:59.933Z,23.20
2023-11-23T08:46:26.903Z,23.43
2023-11-23T08:48:53.721Z,22.23
2023-11-23T08:51:20.517Z,23.73
2023-11-23T08:53:47.781Z,22.90
2023-11-23T08:56:15.324Z,23.53
2023-11-23T08:58:43.505Z,22.73
2023-11-23T09:01:10.197Z,22.80
2023-11-23T09:03:37.018Z,23.03
2023-11-23T09:06:04.331Z,21.80
2023-11-23T09:08:31.164Z,23.23
2023-11-23T09:10:58.434Z,21.77
2023-11-23T09:13:27.355Z,21.40
2023-11-23T09:15:57.448Z,21.93
2023-11-23T09:18:24.298Z,19.17
2023-11-23T09:21:00.242Z,21.37
2023-11-23T09:23:54.947Z,20.33
2023-11-23T09:26:21.843Z,20.40
2023-11-23T09:28:48.987Z,20.53
2023-11-23T09:31:19.346Z,19.23
2023-11-23T09:33:46.326Z,19.93
2023-11-23T09:36:13.518Z,20.33
2023-11-23T09:38:40.247Z,19.17
2023-11-23T09:41:08.129Z,19.77
2023-11-23T09:43:34.830Z,19.77
2023-11-23T09:46:03.006Z,19.57
2023-11-23T09:49:07.916Z,18.63
2023-11-23T09:51:36.564Z,18.67
2023-11-23T09:54:04.535Z,18.07
2023-11-23T09:56:36.313Z,17.90
2023-11-23T09:59:03.133Z,18.47
2023-11-23T10:01:30.123Z,19.23
2023-11-23T10:03:57.233Z,95.27
2023-11-23T10:06:24.475Z,18.73
2023-11-23T10:08:51.245Z,16.90
2023-11-23T10:11:21.134Z,29.50
2023-11-23T10:13:51.356Z,19.33
2023-11-23T10:16:36.121Z,15.43
2023-11-23T10:19:08.186Z,17.52
2023-11-23T10:21:35.663Z,16.70
2023-11-23T10:24:09.281Z,17.27
2023-11-23T10:26:36.377Z,16.50
2023-11-23T10:29:03.432Z,19.67
2023-11-23T10:31:31.966Z,18.37
2023-11-23T10:33:59.617Z,17.87
2023-11-23T10:36:26.382Z,15.77
2023-11-23T10:38:53.105Z,14.80
2023-11-23T10:41:19.773Z,16.00
2023-11-23T10:43:49.840Z,15.03
2023-11-23T10:46:18.058Z,15.43
2023-11-23T10:48:45.783Z,16.43
2023-11-23T10:51:12.539Z,16.00
2023-11-23T10:53:41.160Z,16.37
2023-11-23T10:56:17.725Z,14.93
2023-11-23T10:58:44.411Z,79.53
2023-11-23T11:01:11.770Z,19.37
2023-11-23T11:03:39.622Z,16.73
2023-11-23T11:06:11.542Z,15.97
2023-11-23T11:08:39.441Z,16.37
2023-11-23T11:11:11.688Z,49.17
2023-11-23T11:13:45.743Z,14.03
2023-11-23T11:16:16.889Z,22.43
2023-11-23T11:18:53.731Z,15.20
2023-11-23T11:21:22.047Z,31.97
2023-11-23T11:23:53.059Z,17.17
2023-11-23T11:26:29.284Z,13.63
2023-11-23T11:28:59.169Z,21.20
2023-11-23T11:31:33.214Z,15.53
2023-11-23T11:34:01.565Z,25.00
2023-11-23T11:36:32.278Z,14.03
2023-11-23T11:39:00.851Z,13.63
2023-11-23T11:41:31.057Z,13.87
2023-11-23T11:43:58.394Z,13.53
2023-11-23T11:46:28.439Z,15.10
2023-11-23T11:49:02.438Z,14.97
2023-11-23T11:51:31.137Z,12.93
2023-11-23T11:54:01.346Z,13.27
2023-11-23T11:56:29.419Z,15.93
2023-11-23T11:58:58.211Z,17.27
2023-11-23T12:01:26.445Z,14.40
2023-11-23T12:03:54.894Z,13.70
2023-11-23T12:06:21.742Z,13.57
2023-11-23T12:08:48.447Z,14.67
2023-11-23T12:11:28.078Z,14.23
2023-11-23T12:13:57.074Z,13.83
2023-11-23T12:16:33.087Z,14.20
2023-11-23T12:19:00.187Z,12.93
2023-11-23T12:21:26.989Z,12.77
2023-11-23T12:23:54.244Z,12.50
2023-11-23T12:26:20.888Z,12.03
2023-11-23T12:28:50.931Z,12.17
2023-11-23T12:31:18.943Z,12.47
2023-11-23T12:33:45.815Z,12.40
2023-11-23T12:36:13.692Z,12.70
2023-11-23T12:38:40.540Z,12.10
2023-11-23T12:41:08.591Z,11.37
2023-11-23T12:43:36.292Z,12.30
2023-11-23T12:46:03.347Z,12.27
2023-11-23T12:48:30.222Z,11.87
2023-11-23T12:50:57.757Z,11.67
2023-11-23T12:55:51.207Z,11.90
2023-11-23T12:58:20.221Z,11.07
2023-11-23T13:00:48.362Z,11.47
2023-11-23T13:03:15.446Z,12.37
2023-11-23T13:05:42.544Z,12.43
2023-11-23T13:08:09.654Z,11.83
2023-11-23T13:10:37.252Z,11.77
2023-11-23T13:13:06.239Z,12.00
2023-11-23T13:15:34.469Z,11.60
2023-11-23T13:18:01.374Z,12.00
2023-11-23T13:20:28.391Z,11.30
2023-11-23T13:22:55.697Z,10.27
2023-11-23T13:25:22.605Z,10.93
2023-11-23T13:27:52.697Z,10.07
2023-11-23T13:30:19.440Z,10.93
2023-11-23T13:32:47.520Z,10.50
2023-11-23T13:35:14.392Z,10.83
2023-11-23T13:37:41.043Z,10.83
2023-11-23T13:40:08.576Z,10.93
2023-11-23T13:42:35.492Z,10.83
2023-11-23T13:45:03.588Z,10.40
2023-11-23T13:47:30.369Z,11.80
2023-11-23T13:49:57.056Z,10.57
2023-11-23T13:52:23.744Z,10.13
2023-11-23T13:54:50.480Z,10.57
2023-11-23T13:57:17.393Z,10.27
2023-11-23T13:59:45.162Z,10.27
2023-11-23T14:02:14.117Z,10.20
2023-11-23T14:04:41.582Z,10.00
2023-11-23T14:07:08.683Z,9.97
2023-11-23T14:09:35.462Z,10.60
2023-11-23T14:12:04.859Z,10.10
2023-11-23T14:14:31.830Z,10.57
2023-11-23T14:16:58.793Z,9.13
2023-11-23T14:19:26.247Z,10.93
2023-11-23T14:21:53.042Z,10.40
2023-11-23T14:24:21.374Z,9.87
2023-11-23T14:26:50.864Z,9.67
2023-11-23T14:29:17.950Z,9.00
2023-11-23T14:31:45.747Z,12.40
2023-11-23T14:34:12.478Z,9.03
2023-11-23T14:36:39.248Z,18.60
2023-11-23T14:39:06.990Z,15.83
2023-11-23T14:41:33.721Z,30.63
2023-11-23T14:44:00.346Z,17.63
2023-11-23T14:46:26.951Z,10.33
2023-11-23T14:48:53.706Z,9.30
2023-11-23T14:51:21.368Z,11.77
2023-11-23T14:53:51.747Z,9.70
2023-11-23T14:56:19.755Z,9.10
2023-11-23T14:58:46.773Z,9.53
2023-11-23T15:01:13.576Z,8.80
2023-11-23T15:03:40.316Z,9.80
2023-11-23T15:06:07.315Z,8.63
2023-11-23T15:08:33.964Z,8.80
2023-11-23T15:11:00.719Z,8.97
2023-11-23T15:13:35.987Z,9.30
2023-11-23T15:16:05.915Z,8.77
2023-11-23T15:18:32.750Z,9.60
2023-11-23T15:21:00.588Z,11.47
2023-11-23T15:23:27.337Z,8.10
2023-11-23T15:25:55.427Z,8.53
2023-11-23T15:28:22.856Z,8.60
2023-11-23T15:30:49.873Z,8.00
2023-11-23T15:33:17.806Z,8.73
2023-11-23T15:35:45.206Z,8.23
2023-11-23T15:38:11.874Z,8.70
2023-11-23T15:40:38.526Z,8.50
2023-11-23T15:43:05.372Z,8.60
2023-11-23T15:45:32.168Z,8.43
2023-11-23T15:47:58.850Z,7.97
2023-11-23T15:50:29.357Z,8.17
2023-11-23T15:52:57.906Z,8.90
2023-11-23T15:55:25.441Z,7.63
2023-11-23T15:57:52.242Z,7.80
2023-11-23T16:00:24.872Z,8.40
2023-11-23T16:02:51.715Z,8.17
2023-11-23T16:05:25.851Z,7.93
2023-11-23T16:07:53.521Z,8.17
2023-11-23T16:10:20.659Z,7.90
2023-11-23T16:12:47.983Z,8.07
2023-11-23T16:15:14.930Z,7.90
2023-11-23T16:17:41.667Z,7.97
2023-11-23T16:20:12.489Z,7.90
2023-11-23T16:22:39.138Z,7.20
2023-11-23T16:25:08.414Z,7.40
2023-11-23T16:27:35.201Z,7.10
2023-11-23T16:30:02.620Z,7.43
2023-11-23T16:32:29.316Z,7.97
2023-11-23T16:34:56.468Z,6.80
2023-11-23T16:37:23.157Z,7.73
2023-11-23T16:39:50.193Z,7.10
2023-11-23T16:42:16.971Z,6.80
2023-11-23T16:44:43.674Z,7.30
2023-11-23T16:47:12.103Z,6.90
2023-11-23T16:49:38.963Z,7.57
2023-11-23T16:52:06.108Z,7.27
2023-11-23T16:54:32.865Z,7.00
2023-11-23T16:56:59.673Z,7.00
2023-11-23T16:59:26.318Z,6.40
2023-11-23T17:01:53.060Z,6.90
2023-11-23T17:04:19.989Z,6.80
2023-11-23T17:06:46.745Z,6.73
2023-11-23T17:09:14.083Z,6.73
2023-11-23T17:11:40.876Z,7.10
2023-11-23T17:14:10.971Z,6.30
2023-11-23T17:16:39.417Z,7.07
2023-11-23T17:19:06.227Z,8.17
2023-11-23T17:21:32.980Z,7.40
2023-11-23T17:24:00.118Z,6.80
2023-11-23T17:26:26.761Z,6.40
2023-11-23T17:28:55.685Z,6.37
2023-11-23T17:31:22.384Z,6.47
2023-11-23T17:33:49.045Z,6.80
2023-11-23T17:36:15.832Z,6.10
2023-11-23T17:38:42.550Z,6.78
2023-11-23T17:41:11.531Z,6.83
2023-11-23T17:43:38.276Z,7.00
2023-11-23T17:46:06.020Z,6.27
2023-11-23T17:48:35.009Z,7.23
2023-11-23T17:51:01.720Z,6.83
2023-11-23T17:53:29.170Z,6.70
2023-11-23T17:55:55.940Z,6.80
2023-11-23T17:58:22.919Z,7.20
2023-11-23T18:00:50.525Z,7.23
2023-11-23T18:03:18.413Z,7.50
2023-11-23T18:05:45.152Z,7.50
2023-11-23T18:08:11.883Z,6.53
2023-11-23T18:10:39.352Z,7.13
2023-11-23T18:13:06.668Z,7.67
2023-11-23T18:15:34.314Z,7.00
2023-11-23T18:18:09.758Z,7.60
2023-11-23T18:20:41.939Z,7.00
2023-11-23T18:23:08.595Z,7.40
2023-11-23T18:25:37.169Z,7.53
2023-11-23T18:28:03.812Z,7.37
2023-11-23T18:30:30.481Z,7.90
2023-11-23T18:32:57.324Z,7.43
2023-11-23T18:35:24.795Z,7.03
2023-11-23T18:37:51.519Z,8.27
2023-11-23T18:40:22.176Z,7.40
2023-11-23T18:42:54.421Z,7.60
2023-11-23T18:45:21.223Z,7.10
2023-11-23T18:47:48.234Z,7.33
2023-11-23T18:50:16.031Z,7.47
2023-11-23T18:52:42.768Z,7.20
2023-11-23T18:55:16.197Z,7.33
2023-11-23T18:57:43.317Z,7.23
2023-11-23T19:00:10.727Z,8.40
2023-11-23T19:02:42.105Z,7.97
2023-11-23T19:05:09.526Z,7.73
2023-11-23T19:07:36.172Z,7.63
2023-11-23T19:10:03.219Z,6.90
2023-11-23T19:12:31.188Z,7.60
2023-11-23T19:15:02.031Z,7.20
2023-11-23T19:17:29.452Z,7.07
2023-11-23T19:19:56.334Z,7.53
2023-11-23T19:22:23.453Z,7.43
2023-11-23T19:24:52.359Z,7.03
2023-11-23T19:27:24.631Z,6.87
2023-11-23T19:29:51.835Z,7.07
2023-11-23T19:32:24.430Z,7.03
2023-11-23T19:34:54.466Z,6.90
2023-11-23T19:37:22.017Z,7.20
2023-11-23T19:39:49.052Z,6.80
2023-11-23T19:42:16.201Z,7.23
2023-11-23T19:44:43.380Z,6.93
2023-11-23T19:47:10.537Z,6.97
2023-11-23T19:49:37.655Z,6.93
2023-11-23T19:52:14.636Z,7.37
2023-11-23T19:54:41.811Z,7.40
2023-11-23T19:57:09.810Z,7.40
2023-11-23T19:59:36.642Z,7.50
2023-11-23T20:02:04.420Z,7.57
2023-11-23T20:04:32.665Z,7.50
2023-11-23T20:06:59.429Z,7.60
2023-11-23T20:09:26.179Z,7.63
2023-11-23T20:11:54.176Z,7.37
2023-11-23T20:14:20.883Z,7.27
2023-11-23T20:16:47.533Z,7.67
2023-11-23T20:19:14.247Z,7.40
2023-11-23T20:21:41.124Z,6.73
2023-11-23T20:24:08.124Z,7.50
2023-11-23T20:26:34.806Z,7.13
2023-11-23T20:29:01.473Z,7.47
2023-11-23T20:31:29.510Z,7.00
2023-11-23T20:33:56.274Z,6.90
2023-11-23T20:36:23.105Z,6.90
2023-11-23T20:38:50.007Z,6.73
2023-11-23T20:41:16.840Z,8.73
2023-11-23T20:43:43.518Z,6.57
2023-11-23T20:46:13.191Z,5.70
2023-11-23T20:48:40.781Z,6.53
2023-11-23T20:51:07.470Z,6.77
2023-11-23T20:53:34.966Z,6.90
2023-11-23T20:56:02.192Z,6.30
2023-11-23T20:58:29.108Z,6.70
2023-11-23T21:00:58.170Z,6.20
2023-11-23T21:03:26.662Z,6.43
2023-11-23T21:05:53.721Z,6.37
2023-11-23T21:08:20.645Z,5.90
2023-11-23T21:10:49.187Z,6.47
2023-11-23T21:13:16.791Z,6.80
2023-11-23T21:15:44.052Z,6.37
2023-11-23T21:18:11.559Z,8.67
2023-11-23T21:20:40.941Z,6.50
2023-11-23T21:23:07.630Z,6.53
2023-11-23T21:25:36.067Z,6.97
2023-11-23T21:28:03.785Z,6.43
2023-11-23T21:30:30.497Z,6.80
2023-11-23T21:32:57.900Z,5.63
2023-11-23T21:35:27.552Z,6.50
2023-11-23T21:37:54.694Z,6.93
2023-11-23T21:40:23.635Z,6.40
2023-11-23T21:42:51.845Z,6.03
2023-11-23T21:45:22.787Z,6.10
2023-11-23T21:47:50.731Z,5.97
2023-11-23T21:50:18.953Z,7.33
2023-11-23T21:52:47.756Z,6.23
2023-11-23T21:55:15.500Z,6.40
2023-11-23T21:57:43.789Z,7.17
2023-11-23T22:00:13.282Z,6.57
2023-11-23T22:02:43.029Z,6.80
2023-11-23T22:05:10.213Z,6.83
2023-11-23T22:07:37.067Z,6.33
2023-11-23T22:10:04.111Z,6.50
2023-11-23T22:12:30.788Z,7.20
2023-11-23T22:14:57.430Z,6.43
2023-11-23T22:17:24.813Z,6.80
2023-11-23T22:19:51.878Z,6.30
2023-11-23T22:22:21.553Z,6.57
2023-11-23T22:24:48.605Z,6.60
2023-11-23T22:27:15.684Z,6.73
2023-11-23T22:29:42.579Z,7.00
2023-11-23T22:32:09.431Z,6.93
2023-11-23T22:34:36.790Z,7.40
2023-11-23T22:37:05.270Z,7.90
2023-11-23T22:39:37.197Z,7.67
2023-11-23T22:42:04.496Z,8.23
2023-11-23T22:44:31.457Z,8.30
2023-11-23T22:46:58.613Z,7.70
2023-11-23T22:49:32.822Z,8.37
2023-11-23T22:52:05.974Z,7.70
2023-11-23T22:54:35.599Z,8.60
2023-11-23T22:57:04.365Z,8.13
2023-11-23T22:59:32.635Z,8.50
2023-11-23T23:02:00.992Z,8.23
2023-11-23T23:04:29.077Z,9.27
2023-11-23T23:07:00.103Z,8.27
2023-11-23T23:09:30.742Z,8.37
2023-11-23T23:11:58.563Z,8.00
2023-11-23T23:14:36.798Z,8.73
2023-11-23T23:17:03.465Z,8.07
2023-11-23T23:19:30.146Z,9.57
2023-11-23T23:21:57.018Z,8.63
2023-11-23T23:24:23.795Z,8.63
2023-11-23T23:26:50.531Z,8.20
2023-11-23T23:29:18.205Z,8.73
2023-11-23T23:32:47.315Z,8.77
2023-11-23T23:35:14.084Z,9.20
2023-11-23T23:37:40.746Z,9.13
2023-11-23T23:40:08.505Z,9.23
2023-11-23T23:42:35.300Z,8.60
2023-11-23T23:45:02.071Z,8.23
2023-11-23T23:47:28.799Z,8.53
2023-11-23T23:49:55.560Z,9.20
2023-11-23T23:52:22.211Z,9.50
2023-11-23T23:54:50.224Z,8.50
2023-11-23T23:57:17.396Z,8.67
2023-11-23T23:59:44.081Z,8.33
